Kezdőlap
METAR-TAF:

METAR-TAF

Repülőterek :

Elkhart-Morton County Airport

Elkhart, Kansas, Amerikai Egyesült Államok

földrajzi szélesség: 37-00N, földrajzi hosszúság: 101-54W, magasság: 1099 m

Jelenlegi meteorológiai megfigyelések

A jelentés 25 perccel ezelõtt készült, 02:35 UTC
Dél-délnyugati szél 15 kt
Hőmérséklet 23°C
Páratartalom 73%
Légköri nyomás 1019 hPa
Látótávolság: 16.1 km
Derült ég

METAR: KEHA 220235Z AUTO 21015KT 10SM CLR 23/18 A3010 RMK AO2 T02270176

Idő: 22:00 (03:00 UTC)


TAF: hiányzik

Meteorológiai megfigyelések és előrejelzések több, mint 4000 repülőtéren (METAR és TAF jelentéseket).

A térképen piros és sárga pontok jelzik az elérhető meteorológiai állomásokat.

Mozgassa az egeret a pont fölött, hogy megjelenjen az állomás neve.

Azután kattintson az időjárási megfigyelések és előrejelzések megtekintéséhez.

A térkép megváltoztatása: kattintson a fekete keresztel jelölt zöld gombra ráközelítéshez, a vonallal jelölt zöld gombra távolításhoz, vagy a zöld nyilakra a szomszédos térképek eléréséhez.


METAR-TAF: